Time;durP1;ratioP1;P1;durP2;ratioP2;P2;SDS_P1;SDS_P2;PMS_P1;PMS_P2;Temp;Humidity;BMP_temperature;BMP_pressure;BME280_temperature;BME280_humidity;BME280_pressure;Samples;Min_cycle;Max_cycle;Signal;HPM_P1;HPM_P2
2021/11/26 00:01:33;;;;;;;391.83;374.60;;;4.90;99.90;;;;;;4375432;32;20179;-61
2021/11/26 00:04:01;;;;;;;402.90;385.53;;;5.00;99.90;;;;;;4375080;32;20207;-61
2021/11/26 00:06:28;;;;;;;396.27;379.07;;;5.10;99.90;;;;;;4374650;32;20224;-61
2021/11/26 00:08:55;;;;;;;391.13;374.03;;;5.20;99.90;;;;;;4375837;32;20497;-61
2021/11/26 00:11:22;;;;;;;385.93;368.80;;;5.20;99.90;;;;;;4372716;32;20216;-62
2021/11/26 00:13:51;;;;;;;394.50;377.57;;;5.20;99.90;;;;;;4376681;32;20160;-61
2021/11/26 00:16:21;;;;;;;396.63;379.53;;;5.10;99.90;;;;;;4376160;32;20160;-61
2021/11/26 00:18:50;;;;;;;401.17;383.47;;;5.20;99.90;;;;;;4376030;32;20169;-61
2021/11/26 00:21:17;;;;;;;386.70;370.13;;;5.10;99.90;;;;;;4374722;32;20241;-61
2021/11/26 00:23:44;;;;;;;402.30;384.70;;;5.00;99.90;;;;;;4374127;32;20168;-61
2021/11/26 00:26:11;;;;;;;417.00;398.33;;;5.00;99.90;;;;;;4375041;32;20707;-61
2021/11/26 00:28:37;;;;;;;414.03;395.67;;;5.10;99.90;;;;;;4376526;32;20194;-61
2021/11/26 00:31:04;;;;;;;398.83;381.50;;;5.00;99.90;;;;;;4377372;32;20188;-61
2021/11/26 00:33:36;;;;;;;426.57;408.03;;;5.10;99.90;;;;;;4376593;32;20215;-61
2021/11/26 00:36:03;;;;;;;417.83;399.70;;;5.10;99.90;;;;;;4360973;32;20178;-61
2021/11/26 00:38:29;;;;;;;414.27;396.23;;;5.10;99.90;;;;;;4377335;32;20631;-61
2021/11/26 00:40:59;;;;;;;406.07;388.73;;;5.10;99.90;;;;;;4375414;32;20153;-61
2021/11/26 00:43:30;;;;;;;416.23;398.43;;;5.10;99.90;;;;;;4375003;32;20168;-61
2021/11/26 00:45:57;;;;;;;396.57;379.90;;;5.10;99.90;;;;;;4377288;32;20210;-61
2021/11/26 00:48:24;;;;;;;409.30;391.53;;;5.00;99.90;;;;;;4375581;32;20216;-61
2021/11/26 00:50:52;;;;;;;375.40;359.87;;;4.90;99.90;;;;;;4374746;32;20209;-61
2021/11/26 00:53:19;;;;;;;387.50;371.37;;;4.90;99.90;;;;;;4375408;32;20218;-61
2021/11/26 00:55:46;;;;;;;384.93;368.97;;;4.80;99.90;;;;;;4373965;32;20250;-61
2021/11/26 00:58:16;;;;;;;386.37;370.37;;;4.80;99.90;;;;;;4375159;32;20168;-61
2021/11/26 01:00:45;;;;;;;392.43;376.03;;;4.70;99.90;;;;;;4375001;32;20216;-61
2021/11/26 01:03:12;;;;;;;395.53;379.10;;;4.70;99.90;;;;;;4375897;32;20545;-61
2021/11/26 01:05:39;;;;;;;375.80;359.93;;;4.60;99.90;;;;;;4374443;32;20533;-61
2021/11/26 01:08:07;;;;;;;383.57;367.10;;;4.60;99.90;;;;;;4375037;32;20208;-61
2021/11/26 01:10:35;;;;;;;371.13;355.60;;;4.60;99.90;;;;;;4376178;32;20190;-61
2021/11/26 01:13:02;;;;;;;382.47;366.13;;;4.60;99.90;;;;;;4374915;32;20171;-61
2021/11/26 01:15:33;;;;;;;395.90;379.40;;;4.60;99.90;;;;;;4375952;32;20157;-61
2021/11/26 01:18:00;;;;;;;383.03;366.80;;;4.60;99.90;;;;;;4375465;32;20155;-60
2021/11/26 01:20:29;;;;;;;398.90;382.07;;;4.70;99.90;;;;;;4374441;32;20204;-61
2021/11/26 01:22:56;;;;;;;390.07;373.70;;;4.70;99.90;;;;;;4374735;32;20179;-61
2021/11/26 01:25:25;;;;;;;406.93;389.47;;;4.80;99.90;;;;;;4379275;32;20171;-61
2021/11/26 01:27:52;;;;;;;409.37;391.63;;;4.80;99.90;;;;;;4377760;32;20187;-60
2021/11/26 01:30:24;;;;;;;412.97;395.00;;;4.80;99.90;;;;;;4379229;32;20212;-61
2021/11/26 01:32:51;;;;;;;411.17;392.97;;;4.90;99.90;;;;;;4379745;32;20532;-61
2021/11/26 01:35:20;;;;;;;411.10;393.20;;;4.80;99.90;;;;;;4379805;32;20160;-61
2021/11/26 01:37:48;;;;;;;403.40;385.77;;;4.80;99.90;;;;;;4377780;32;20212;-61
2021/11/26 01:40:16;;;;;;;413.67;395.77;;;4.80;99.90;;;;;;4379780;32;20200;-61
2021/11/26 01:42:46;;;;;;;410.67;392.77;;;4.80;99.90;;;;;;4377722;32;20218;-60
2021/11/26 01:45:14;;;;;;;409.80;391.87;;;4.80;99.90;;;;;;4377441;32;20607;-61
2021/11/26 01:47:41;;;;;;;418.00;400.13;;;4.80;99.90;;;;;;4379273;32;20172;-61
2021/11/26 01:50:10;;;;;;;408.00;390.77;;;4.70;99.90;;;;;;4376623;32;20183;-61
2021/11/26 01:52:37;;;;;;;416.23;398.10;;;4.70;99.90;;;;;;4377061;32;20180;-60
2021/11/26 01:55:07;;;;;;;399.90;382.37;;;4.80;99.90;;;;;;4379509;32;20156;-61
2021/11/26 01:57:34;;;;;;;397.43;380.67;;;4.70;99.90;;;;;;4378408;32;20250;-60
2021/11/26 02:00:07;;;;;;;401.17;384.17;;;4.70;99.90;;;;;;4377923;32;20183;-60
2021/11/26 02:02:34;;;;;;;390.23;373.87;;;4.80;99.90;;;;;;4377670;32;20178;-60
2021/11/26 02:05:01;;;;;;;395.73;379.17;;;4.70;99.90;;;;;;4377288;32;20651;-61
2021/11/26 02:07:28;;;;;;;397.33;380.70;;;4.70;99.90;;;;;;4377224;32;20168;-61
2021/11/26 02:09:55;;;;;;;386.47;370.20;;;4.70;99.90;;;;;;4378877;32;20212;-61
2021/11/26 02:12:22;;;;;;;412.67;394.70;;;4.70;99.90;;;;;;4378089;32;20219;-60
2021/11/26 02:14:49;;;;;;;419.60;401.70;;;4.70;99.90;;;;;;4373423;32;20164;-61
2021/11/26 02:17:17;;;;;;;410.43;392.30;;;4.60;99.90;;;;;;4376392;32;20523;-61
2021/11/26 02:19:45;;;;;;;403.80;386.33;;;4.60;99.90;;;;;;4378533;32;20171;-60
2021/11/26 02:22:14;;;;;;;412.83;395.13;;;4.50;99.90;;;;;;4377532;32;20148;-60
2021/11/26 02:24:40;;;;;;;400.70;383.83;;;4.50;99.90;;;;;;4376964;32;20160;-60
2021/11/26 02:27:08;;;;;;;392.33;375.80;;;4.60;99.90;;;;;;4364491;32;20595;-61
2021/11/26 02:29:35;;;;;;;374.93;359.40;;;4.60;99.90;;;;;;4376465;32;20595;-61
2021/11/26 02:32:02;;;;;;;374.33;358.63;;;4.60;99.90;;;;;;4378009;32;20216;-61
2021/11/26 02:34:30;;;;;;;383.20;367.00;;;4.60;99.90;;;;;;4376429;32;20176;-60
2021/11/26 02:36:57;;;;;;;376.23;360.27;;;4.50;99.90;;;;;;4376831;32;20160;-60
2021/11/26 02:39:25;;;;;;;368.17;352.87;;;4.50;99.90;;;;;;4377744;32;20215;-61
2021/11/26 02:41:52;;;;;;;382.87;366.93;;;4.50;99.90;;;;;;4378729;32;20220;-61
2021/11/26 02:44:19;;;;;;;381.57;365.57;;;4.50;99.90;;;;;;4376399;32;20171;-60
2021/11/26 02:46:46;;;;;;;383.73;367.93;;;4.40;99.90;;;;;;4378059;32;20219;-60
2021/11/26 02:49:13;;;;;;;380.50;364.23;;;4.40;99.90;;;;;;4376883;32;20216;-60
2021/11/26 02:51:39;;;;;;;384.57;368.70;;;4.50;99.90;;;;;;4377848;32;20584;-61
2021/11/26 02:54:06;;;;;;;378.70;362.47;;;4.50;99.90;;;;;;4376520;32;20190;-60
2021/11/26 02:56:34;;;;;;;407.33;389.50;;;4.50;99.90;;;;;;4378402;32;20191;-60
2021/11/26 02:59:04;;;;;;;424.03;405.93;;;4.60;99.90;;;;;;4377667;32;20208;-60
2021/11/26 03:01:31;;;;;;;409.67;391.83;;;4.60;99.90;;;;;;4376932;32;20168;-61
2021/11/26 03:03:58;;;;;;;400.60;383.60;;;4.60;99.90;;;;;;4376316;32;20178;-61
2021/11/26 03:06:25;;;;;;;398.13;380.87;;;4.70;99.90;;;;;;4377298;32;20259;-61
2021/11/26 03:08:52;;;;;;;417.77;399.60;;;4.60;99.90;;;;;;4378803;32;20168;-60
2021/11/26 03:11:19;;;;;;;417.27;399.77;;;4.60;99.90;;;;;;4378315;32;20188;-60
2021/11/26 03:13:47;;;;;;;408.60;391.13;;;4.70;99.90;;;;;;4377681;32;20203;-60
2021/11/26 03:16:14;;;;;;;413.43;395.83;;;4.60;99.90;;;;;;4376831;32;20312;-60
2021/11/26 03:18:41;;;;;;;412.60;395.00;;;4.70;99.90;;;;;;4377277;32;20624;-61
2021/11/26 03:21:08;;;;;;;401.70;384.67;;;4.70;99.90;;;;;;4377221;32;20184;-60
2021/11/26 03:23:35;;;;;;;406.07;388.73;;;4.70;99.90;;;;;;4376189;32;20184;-61
2021/11/26 03:26:01;;;;;;;408.83;391.60;;;4.70;99.90;;;;;;4377592;32;20180;-60
2021/11/26 03:28:28;;;;;;;409.93;391.70;;;4.70;99.90;;;;;;4377035;32;20623;-60
2021/11/26 03:30:56;;;;;;;402.97;385.97;;;4.70;99.90;;;;;;4378073;32;20160;-60
2021/11/26 03:33:23;;;;;;;387.77;371.33;;;4.80;99.90;;;;;;4368427;32;20254;-60
2021/11/26 03:35:50;;;;;;;395.07;378.23;;;4.80;99.90;;;;;;4377778;32;20176;-60
2021/11/26 03:38:17;;;;;;;398.97;382.10;;;4.70;99.90;;;;;;4377176;32;20213;-60
2021/11/26 03:40:44;;;;;;;412.90;395.03;;;4.80;99.90;;;;;;4376302;32;20182;-60
2021/11/26 03:43:11;;;;;;;396.97;379.93;;;4.90;99.90;;;;;;4377259;32;20186;-61
2021/11/26 03:45:40;;;;;;;400.10;383.37;;;4.90;99.90;;;;;;4375631;32;20216;-60
2021/11/26 03:48:08;;;;;;;398.03;381.30;;;4.90;99.90;;;;;;4375623;32;20210;-60
2021/11/26 03:50:35;;;;;;;383.00;366.80;;;5.00;99.90;;;;;;4375514;32;20230;-60
2021/11/26 03:53:02;;;;;;;400.57;383.47;;;5.00;99.90;;;;;;4375292;32;20238;-60
2021/11/26 03:55:29;;;;;;;423.70;405.50;;;5.00;99.90;;;;;;4375564;32;20239;-60
2021/11/26 03:57:58;;;;;;;417.93;400.27;;;5.10;99.90;;;;;;4375948;32;20270;-60
2021/11/26 04:00:25;;;;;;;407.93;390.53;;;5.10;99.90;;;;;;4377311;32;20172;-60
2021/11/26 04:02:52;;;;;;;387.17;370.77;;;5.10;99.90;;;;;;4378017;32;20201;-60
2021/11/26 04:05:21;;;;;;;384.97;368.53;;;5.00;99.90;;;;;;4377943;32;20195;-60
2021/11/26 04:07:48;;;;;;;402.93;385.67;;;4.90;99.90;;;;;;4376600;32;20176;-60
2021/11/26 04:10:18;;;;;;;390.53;374.17;;;4.90;99.90;;;;;;4375520;32;20212;-60
2021/11/26 04:12:49;;;;;;;403.77;386.70;;;4.90;99.90;;;;;;4377083;32;20155;-60
2021/11/26 04:15:17;;;;;;;393.20;376.27;;;4.80;99.90;;;;;;4375771;32;20160;-60
2021/11/26 04:17:47;;;;;;;391.83;375.20;;;4.70;99.90;;;;;;4376900;32;20577;-60
2021/11/26 04:20:16;;;;;;;382.53;366.40;;;4.70;99.90;;;;;;4377250;32;20153;-60
2021/11/26 04:22:44;;;;;;;375.13;358.97;;;4.70;99.90;;;;;;4374938;32;20180;-60
2021/11/26 04:25:14;;;;;;;366.83;351.47;;;4.60;99.90;;;;;;4377033;32;20211;-60
2021/11/26 04:27:43;;;;;;;374.63;358.70;;;4.60;99.90;;;;;;4376768;32;20239;-60
2021/11/26 04:30:13;;;;;;;374.10;357.90;;;4.60;99.90;;;;;;4375901;32;20152;-60
2021/11/26 04:32:41;;;;;;;363.77;348.20;;;4.50;99.90;;;;;;4375599;32;20148;-60
2021/11/26 04:35:10;;;;;;;381.67;364.90;;;4.50;99.90;;;;;;4376188;32;20195;-59
2021/11/26 04:37:37;;;;;;;387.10;370.53;;;4.50;99.90;;;;;;4372527;32;20189;-60
2021/11/26 04:40:08;;;;;;;383.00;367.00;;;4.50;99.90;;;;;;4362629;32;20153;-59
2021/11/26 04:42:35;;;;;;;405.40;388.27;;;4.50;99.90;;;;;;4361564;32;20206;-60
2021/11/26 04:45:02;;;;;;;429.73;411.13;;;4.50;99.90;;;;;;4305855;32;2089287;-59
2021/11/26 04:47:29;;;;;;;404.93;387.73;;;4.50;99.90;;;;;;4376520;32;20175;-60
2021/11/26 04:49:56;;;;;;;400.47;383.67;;;4.50;99.90;;;;;;4374001;32;20259;-59
2021/11/26 04:52:23;;;;;;;384.40;367.97;;;4.50;99.90;;;;;;4375268;32;20156;-59
2021/11/26 04:54:50;;;;;;;398.80;381.63;;;4.40;99.90;;;;;;4376071;32;20204;-59
2021/11/26 04:57:18;;;;;;;396.87;380.10;;;4.50;99.90;;;;;;4374118;32;20219;-61
2021/11/26 04:59:45;;;;;;;392.07;375.67;;;4.50;99.90;;;;;;4373546;32;20537;-60
2021/11/26 05:02:11;;;;;;;404.43;387.17;;;4.40;99.90;;;;;;4374891;32;20778;-60
2021/11/26 05:04:38;;;;;;;396.20;378.70;;;4.50;99.90;;;;;;4375208;32;20212;-60
2021/11/26 05:07:06;;;;;;;390.20;373.87;;;4.40;99.90;;;;;;4375284;32;20624;-60
2021/11/26 05:09:32;;;;;;;395.40;378.83;;;4.40;99.90;;;;;;4371445;32;20311;-59
2021/11/26 05:12:03;;;;;;;389.17;372.20;;;4.40;99.90;;;;;;4377099;32;20178;-60
2021/11/26 05:14:32;;;;;;;407.40;390.03;;;4.50;99.90;;;;;;4375482;32;20172;-60
2021/11/26 05:16:59;;;;;;;392.73;375.97;;;4.40;99.90;;;;;;4374857;32;20252;-60
2021/11/26 05:19:26;;;;;;;409.90;392.40;;;4.40;99.90;;;;;;4376966;32;20247;-60
2021/11/26 05:21:53;;;;;;;393.60;376.63;;;4.30;99.90;;;;;;4373993;32;20168;-60
2021/11/26 05:24:20;;;;;;;377.87;361.60;;;4.20;99.90;;;;;;4373433;32;20200;-60
2021/11/26 05:26:47;;;;;;;397.70;380.50;;;4.20;99.90;;;;;;4375143;32;20219;-60
2021/11/26 05:29:15;;;;;;;404.83;387.13;;;4.20;99.90;;;;;;4375394;32;20203;-60
2021/11/26 05:31:43;;;;;;;397.67;380.80;;;4.20;99.90;;;;;;4374639;32;20168;-60
2021/11/26 05:34:10;;;;;;;401.13;384.10;;;4.10;99.90;;;;;;4376182;32;20525;-60
2021/11/26 05:36:38;;;;;;;396.60;379.63;;;4.10;99.90;;;;;;4374755;32;20207;-60
2021/11/26 05:39:07;;;;;;;386.50;370.07;;;4.20;99.90;;;;;;4375985;32;20221;-59
2021/11/26 05:41:33;;;;;;;410.17;392.53;;;4.10;99.90;;;;;;4376136;32;20573;-60
2021/11/26 05:44:00;;;;;;;405.50;387.67;;;4.10;99.90;;;;;;4375798;32;20228;-59
2021/11/26 05:46:27;;;;;;;406.67;389.33;;;4.10;99.90;;;;;;4366875;32;20606;-60
2021/11/26 05:48:55;;;;;;;411.10;392.67;;;4.10;99.90;;;;;;4371594;32;20521;-60
2021/11/26 05:51:23;;;;;;;406.10;388.17;;;4.10;99.90;;;;;;4375210;32;20215;-60
2021/11/26 05:53:50;;;;;;;407.13;388.83;;;4.10;99.90;;;;;;4374005;32;20215;-59
2021/11/26 05:56:17;;;;;;;387.37;370.63;;;4.10;99.90;;;;;;4374883;32;20186;-60
2021/11/26 05:58:44;;;;;;;368.50;352.33;;;4.20;99.90;;;;;;4374178;32;20184;-60
2021/11/26 06:01:11;;;;;;;397.73;380.70;;;4.20;99.90;;;;;;4374424;32;20212;-60
2021/11/26 06:03:39;;;;;;;411.87;393.70;;;4.20;99.90;;;;;;4376242;32;20187;-60
2021/11/26 06:06:07;;;;;;;381.93;365.43;;;4.20;99.90;;;;;;4376340;32;20205;-60
2021/11/26 06:08:38;;;;;;;392.40;374.90;;;4.20;99.90;;;;;;4375431;32;20187;-60
2021/11/26 06:11:05;;;;;;;403.53;385.17;;;4.20;99.90;;;;;;4378311;32;20167;-60
2021/11/26 06:13:32;;;;;;;393.40;376.53;;;4.20;99.90;;;;;;4376423;32;20588;-59
2021/11/26 06:16:01;;;;;;;391.17;374.33;;;4.30;99.90;;;;;;4375254;32;20168;-59
2021/11/26 06:18:27;;;;;;;406.40;388.67;;;4.30;99.90;;;;;;4373499;32;20247;-60
2021/11/26 06:20:56;;;;;;;401.20;383.63;;;4.20;99.90;;;;;;4374853;32;20172;-59
2021/11/26 06:23:24;;;;;;;404.80;387.10;;;4.20;99.90;;;;;;4374292;32;20188;-59
2021/11/26 06:25:51;;;;;;;395.73;378.17;;;4.20;99.90;;;;;;4374745;32;20200;-59
2021/11/26 06:28:18;;;;;;;416.00;397.63;;;4.20;99.90;;;;;;4371896;32;20212;-59
2021/11/26 06:30:45;;;;;;;396.13;379.17;;;4.20;99.90;;;;;;4374153;32;20231;-59
2021/11/26 06:33:12;;;;;;;415.37;396.87;;;4.20;99.90;;;;;;4375318;32;20454;-60
2021/11/26 06:35:39;;;;;;;375.37;359.03;;;4.20;99.90;;;;;;4374784;32;20188;-59
2021/11/26 06:38:06;;;;;;;361.87;346.10;;;4.10;99.90;;;;;;4374819;32;20183;-60
2021/11/26 06:40:34;;;;;;;381.17;363.73;;;4.00;99.90;;;;;;4374606;32;20504;-60
2021/11/26 06:43:00;;;;;;;367.33;351.20;;;3.90;99.90;;;;;;4375943;32;20592;-60
2021/11/26 06:45:27;;;;;;;371.67;355.47;;;4.00;99.90;;;;;;4377162;32;20214;-60
2021/11/26 06:47:54;;;;;;;372.80;356.37;;;4.00;99.90;;;;;;4375221;32;20203;-60
2021/11/26 06:50:21;;;;;;;368.70;353.17;;;3.90;99.90;;;;;;4377160;32;20220;-59
2021/11/26 06:52:49;;;;;;;377.27;360.07;;;3.90;99.90;;;;;;4375537;32;20208;-59
2021/11/26 06:55:16;;;;;;;374.73;358.67;;;3.90;99.90;;;;;;4374515;32;20222;-60
2021/11/26 06:57:44;;;;;;;371.50;354.90;;;3.90;99.90;;;;;;4376612;32;20184;-60
2021/11/26 07:00:14;;;;;;;377.20;360.47;;;4.00;99.90;;;;;;4377369;32;20200;-59
2021/11/26 07:02:42;;;;;;;373.90;357.60;;;3.90;99.90;;;;;;4376642;32;20179;-59
2021/11/26 07:05:10;;;;;;;379.20;362.73;;;3.90;99.90;;;;;;4376831;32;20177;-60
2021/11/26 07:07:37;;;;;;;371.27;355.10;;;3.90;99.90;;;;;;4374548;32;20221;-59
2021/11/26 07:10:06;;;;;;;382.73;365.97;;;3.80;99.90;;;;;;4375478;32;20195;-60
2021/11/26 07:12:34;;;;;;;372.20;356.27;;;3.90;99.90;;;;;;4375107;32;20196;-60
2021/11/26 07:15:04;;;;;;;366.53;350.67;;;3.80;99.90;;;;;;4376150;32;20175;-59
2021/11/26 07:17:33;;;;;;;349.63;333.93;;;3.80;99.90;;;;;;4375204;32;20164;-59
2021/11/26 07:20:01;;;;;;;352.07;337.10;;;3.80;99.90;;;;;;4375252;32;20174;-61
2021/11/26 07:22:31;;;;;;;358.63;343.07;;;3.90;99.90;;;;;;4379870;32;20733;-60
2021/11/26 07:24:58;;;;;;;355.13;339.70;;;3.90;99.90;;;;;;4372188;32;20247;-60
2021/11/26 07:27:28;;;;;;;359.00;342.77;;;4.00;99.90;;;;;;4374546;32;20156;-63
2021/11/26 07:29:56;;;;;;;350.10;335.03;;;4.00;99.90;;;;;;4382277;32;20663;-60
2021/11/26 07:32:24;;;;;;;351.00;336.03;;;4.00;99.90;;;;;;4372420;32;20492;-60
2021/11/26 07:34:52;;;;;;;362.37;346.40;;;4.20;99.90;;;;;;4376514;32;20591;-59
2021/11/26 07:37:19;;;;;;;377.13;360.37;;;4.10;99.90;;;;;;4374607;32;20159;-60
2021/11/26 07:39:46;;;;;;;369.17;353.40;;;4.10;99.90;;;;;;4377707;32;20186;-61
2021/11/26 07:42:13;;;;;;;370.30;354.53;;;4.10;99.90;;;;;;4376030;32;20169;-60
2021/11/26 07:44:41;;;;;;;362.50;346.27;;;4.20;99.90;;;;;;4377406;32;20149;-60
2021/11/26 07:47:15;;;;;;;375.07;358.97;;;4.20;99.90;;;;;;4373712;32;20223;-60
2021/11/26 07:49:46;;;;;;;374.70;358.13;;;4.20;99.90;;;;;;4374107;32;20227;-60
2021/11/26 07:52:14;;;;;;;366.73;350.83;;;4.20;99.90;;;;;;4373397;32;20183;-61
2021/11/26 07:54:40;;;;;;;377.03;360.13;;;4.20;99.90;;;;;;4374868;32;20204;-60
2021/11/26 07:57:07;;;;;;;376.73;360.47;;;4.30;99.90;;;;;;4376488;32;20179;-60
2021/11/26 07:59:36;;;;;;;367.23;351.20;;;4.30;99.90;;;;;;4375827;32;20184;-60
2021/11/26 08:02:05;;;;;;;373.37;357.07;;;4.40;99.90;;;;;;4377396;32;20604;-61
2021/11/26 08:04:32;;;;;;;353.33;338.00;;;4.40;99.90;;;;;;4375969;32;20160;-60
2021/11/26 08:07:04;;;;;;;370.60;354.73;;;4.30;99.90;;;;;;4375528;32;20161;-61
2021/11/26 08:09:30;;;;;;;383.03;366.57;;;4.40;99.90;;;;;;4376309;32;20200;-60
2021/11/26 08:11:58;;;;;;;377.33;360.53;;;4.40;99.90;;;;;;4375709;32;20180;-60
2021/11/26 08:14:25;;;;;;;375.77;359.80;;;4.40;99.90;;;;;;4374899;32;20160;-61
2021/11/26 08:16:54;;;;;;;365.47;349.40;;;4.50;99.90;;;;;;4374980;32;20671;-60
2021/11/26 08:19:21;;;;;;;370.27;353.97;;;4.50;99.90;;;;;;4381241;32;20226;-60
2021/11/26 08:21:49;;;;;;;375.47;359.53;;;4.50;99.90;;;;;;4380392;32;20188;-61
2021/11/26 08:24:17;;;;;;;360.47;345.20;;;4.60;99.90;;;;;;4375491;32;20222;-60
2021/11/26 08:26:45;;;;;;;378.23;362.07;;;4.70;99.90;;;;;;4374877;32;20188;-60
2021/11/26 08:29:12;;;;;;;368.63;352.20;;;4.70;99.90;;;;;;4374665;32;20172;-60
2021/11/26 08:31:39;;;;;;;362.63;346.97;;;4.70;99.90;;;;;;4375034;32;20192;-60
2021/11/26 08:34:07;;;;;;;373.47;355.87;;;4.80;99.90;;;;;;4374593;32;20176;-61
2021/11/26 08:36:35;;;;;;;368.97;352.93;;;4.70;99.90;;;;;;4374712;32;20203;-60
2021/11/26 08:39:02;;;;;;;365.47;349.30;;;4.70;99.90;;;;;;4374940;32;20157;-60
2021/11/26 08:41:33;;;;;;;400.67;382.23;;;4.70;99.90;;;;;;4377368;32;20483;-60
2021/11/26 08:44:04;;;;;;;380.80;363.87;;;4.70;99.90;;;;;;4380078;32;20597;-60
2021/11/26 08:46:30;;;;;;;382.47;365.13;;;4.70;99.90;;;;;;4377506;32;20208;-60
2021/11/26 08:48:59;;;;;;;379.27;362.00;;;4.80;99.90;;;;;;4375657;32;20160;-61
2021/11/26 08:51:33;;;;;;;389.77;371.43;;;4.80;99.90;;;;;;4374611;32;20258;-61
2021/11/26 08:54:01;;;;;;;383.23;366.07;;;5.00;99.90;;;;;;4377105;32;20170;-60
2021/11/26 08:56:32;;;;;;;378.30;362.00;;;5.10;99.90;;;;;;4361024;32;20152;-60
2021/11/26 08:59:02;;;;;;;369.67;353.17;;;5.20;99.90;;;;;;4375548;32;20234;-61
2021/11/26 09:01:31;;;;;;;370.40;354.10;;;5.30;99.90;;;;;;4374960;32;20206;-61
2021/11/26 09:03:57;;;;;;;382.33;365.17;;;5.30;99.90;;;;;;4374890;32;20189;-61
2021/11/26 09:06:26;;;;;;;379.27;362.50;;;5.40;99.90;;;;;;4374957;32;20627;-61
2021/11/26 09:08:54;;;;;;;373.33;356.20;;;5.50;99.90;;;;;;4375539;32;20156;-60
2021/11/26 09:11:22;;;;;;;370.67;353.67;;;5.70;99.90;;;;;;4375325;32;20205;-61
2021/11/26 09:13:49;;;;;;;389.63;372.77;;;5.80;99.90;;;;;;4373901;32;20171;-61
2021/11/26 09:16:18;;;;;;;369.50;352.90;;;5.80;99.90;;;;;;4374579;32;20160;-61
2021/11/26 09:18:45;;;;;;;365.37;348.20;;;5.90;99.90;;;;;;4374693;32;20160;-60
2021/11/26 09:21:12;;;;;;;357.50;341.07;;;6.10;99.90;;;;;;4361554;32;20176;-61
2021/11/26 09:23:39;;;;;;;356.83;340.17;;;6.10;99.90;;;;;;4373274;32;20157;-61
2021/11/26 09:26:06;;;;;;;356.97;340.30;;;6.20;99.90;;;;;;4376423;32;20164;-61
2021/11/26 09:28:33;;;;;;;361.87;345.03;;;6.20;99.90;;;;;;4374127;32;20209;-61
2021/11/26 09:31:00;;;;;;;350.43;334.27;;;6.30;99.90;;;;;;4375759;32;20160;-60
2021/11/26 09:33:35;;;;;;;364.27;347.37;;;6.30;99.90;;;;;;4371441;32;20175;-60
2021/11/26 09:36:04;;;;;;;347.07;331.47;;;6.30;99.90;;;;;;4373006;32;20175;-60
2021/11/26 09:38:31;;;;;;;369.47;352.80;;;6.30;99.90;;;;;;4369947;32;20227;-60
2021/11/26 09:40:58;;;;;;;354.40;337.43;;;6.30;99.90;;;;;;4374131;32;20222;-61
2021/11/26 09:43:26;;;;;;;375.27;357.63;;;6.20;99.90;;;;;;4373478;32;20182;-60
2021/11/26 09:45:54;;;;;;;362.30;344.87;;;6.20;99.90;;;;;;4376681;32;20626;-61
2021/11/26 09:48:21;;;;;;;362.43;345.87;;;6.10;99.90;;;;;;4373759;32;20179;-63
2021/11/26 09:50:50;;;;;;;363.23;346.47;;;5.90;99.90;;;;;;4378268;32;20199;-60
2021/11/26 09:53:25;;;;;;;362.03;345.70;;;5.90;99.90;;;;;;4376406;32;20152;-61
2021/11/26 09:55:55;;;;;;;356.70;340.87;;;5.90;99.90;;;;;;4376644;32;20199;-61
2021/11/26 09:58:29;;;;;;;364.53;348.43;;;5.90;99.90;;;;;;4376305;32;20156;-61
2021/11/26 10:00:59;;;;;;;363.67;347.03;;;5.90;99.90;;;;;;4377773;32;20605;-62
2021/11/26 10:03:40;;;;;;;356.37;340.53;;;6.10;99.90;;;;;;4376475;32;20500;-61
2021/11/26 10:06:21;;;;;;;351.70;336.70;;;6.20;99.90;;;;;;4373990;32;20206;-61
2021/11/26 10:09:00;;;;;;;359.47;343.13;;;6.10;99.90;;;;;;4376772;32;20473;-61
2021/11/26 10:11:37;;;;;;;354.83;338.67;;;6.10;99.90;;;;;;4376057;32;20212;-61
2021/11/26 10:14:16;;;;;;;351.93;336.27;;;6.00;99.90;;;;;;4370968;32;20183;-61
2021/11/26 10:16:44;;;;;;;350.97;335.87;;;6.00;99.90;;;;;;4376347;32;20157;-61
2021/11/26 10:19:14;;;;;;;351.33;335.67;;;6.00;99.90;;;;;;4378367;32;20595;-61
2021/11/26 10:21:45;;;;;;;358.43;343.17;;;5.90;99.90;;;;;;4377320;32;20194;-60
2021/11/26 10:24:17;;;;;;;363.57;348.07;;;5.90;99.90;;;;;;4372026;32;20270;-61
2021/11/26 10:26:53;;;;;;;350.90;335.83;;;6.00;99.90;;;;;;4376293;32;20164;-61
2021/11/26 10:29:31;;;;;;;350.43;335.43;;;6.00;99.90;;;;;;4373619;32;20164;-61
2021/11/26 10:32:10;;;;;;;362.77;346.73;;;6.10;99.90;;;;;;4374246;32;20512;-61
2021/11/26 10:34:39;;;;;;;370.87;354.90;;;6.30;99.90;;;;;;4373996;32;20175;-61
2021/11/26 10:37:19;;;;;;;349.27;334.23;;;6.50;99.90;;;;;;4374935;32;20503;-61
2021/11/26 10:39:46;;;;;;;350.57;334.60;;;6.50;99.90;;;;;;4376827;32;20183;-61
2021/11/26 10:42:13;;;;;;;347.20;331.83;;;6.50;99.90;;;;;;4372769;32;20153;-61
2021/11/26 10:44:46;;;;;;;357.63;342.23;;;6.50;99.90;;;;;;4374913;32;20472;-61
2021/11/26 10:47:23;;;;;;;364.93;349.40;;;6.60;99.90;;;;;;4375163;32;20258;-61
2021/11/26 10:50:02;;;;;;;346.27;331.33;;;6.70;99.90;;;;;;4375619;32;20175;-60
2021/11/26 10:58:15;;;;;;;330.20;316.17;;;6.90;99.90;;;;;;4377058;32;20203;-60
2021/11/26 11:00:42;;;;;;;326.53;312.30;;;6.90;99.90;;;;;;4378160;32;20223;-61
2021/11/26 11:03:09;;;;;;;328.27;314.23;;;6.70;99.90;;;;;;4371334;32;20199;-61
2021/11/26 11:05:38;;;;;;;326.17;312.53;;;6.60;99.90;;;;;;4375459;32;20184;-61
2021/11/26 11:08:18;;;;;;;350.57;335.30;;;6.50;99.90;;;;;;4365541;32;20157;-61
2021/11/26 11:10:45;;;;;;;337.37;322.40;;;6.60;99.90;;;;;;4377245;32;20175;-61
2021/11/26 11:13:16;;;;;;;348.53;333.77;;;6.50;99.90;;;;;;4378072;32;20610;-61
2021/11/26 11:15:44;;;;;;;341.67;327.40;;;6.70;99.90;;;;;;4376662;32;20173;-61
2021/11/26 11:18:12;;;;;;;330.40;316.27;;;6.80;99.90;;;;;;4376309;32;20555;-61
2021/11/26 11:20:39;;;;;;;331.60;317.43;;;6.80;99.90;;;;;;4377522;32;20167;-61
2021/11/26 11:23:09;;;;;;;332.13;317.43;;;6.70;99.90;;;;;;4376313;32;20520;-61
2021/11/26 11:25:44;;;;;;;353.60;338.47;;;6.70;99.90;;;;;;4377184;32;20206;-61
2021/11/26 11:28:22;;;;;;;363.37;348.07;;;6.70;99.90;;;;;;4375116;32;20164;-61
2021/11/26 11:30:49;;;;;;;347.93;331.50;;;6.80;99.90;;;;;;4377473;32;20553;-61
2021/11/26 11:33:19;;;;;;;346.10;330.93;;;6.70;99.90;;;;;;4369691;32;20651;-61
2021/11/26 11:35:47;;;;;;;342.70;328.17;;;6.70;99.90;;;;;;4374077;32;20229;-61
2021/11/26 11:38:17;;;;;;;339.73;325.33;;;6.60;99.90;;;;;;4375646;32;20207;-60
2021/11/26 11:40:46;;;;;;;338.47;323.40;;;6.60;99.90;;;;;;4378222;32;20189;-61
2021/11/26 11:43:15;;;;;;;350.57;336.10;;;6.50;99.90;;;;;;4378871;32;20157;-61
2021/11/26 11:45:55;;;;;;;341.20;326.70;;;6.50;99.90;;;;;;4375501;32;20502;-61
2021/11/26 11:48:27;;;;;;;330.00;315.87;;;6.40;99.90;;;;;;4373561;32;20320;-60
2021/11/26 11:50:54;;;;;;;341.10;326.63;;;6.40;99.90;;;;;;4374361;32;20160;-61
2021/11/26 11:53:31;;;;;;;347.07;331.93;;;6.10;99.90;;;;;;4374550;32;20218;-61
2021/11/26 11:56:10;;;;;;;351.07;336.13;;;6.10;99.90;;;;;;4372430;32;20160;-61
2021/11/26 11:58:49;;;;;;;361.83;346.43;;;6.00;99.90;;;;;;4377497;32;20621;-61
2021/11/26 12:01:27;;;;;;;353.00;338.27;;;5.90;99.90;;;;;;4374959;32;20172;-61
2021/11/26 12:03:56;;;;;;;372.73;356.63;;;5.90;99.90;;;;;;4375896;32;20160;-61
2021/11/26 12:06:36;;;;;;;382.03;365.07;;;5.70;99.90;;;;;;4375970;32;20187;-61
2021/11/26 12:09:04;;;;;;;351.23;335.83;;;5.90;99.90;;;;;;4368709;32;20207;-60
2021/11/26 12:11:34;;;;;;;372.20;356.03;;;5.80;99.90;;;;;;4378515;32;20438;-61
2021/11/26 12:14:04;;;;;;;365.67;350.03;;;5.70;99.90;;;;;;4375932;32;20160;-61
2021/11/26 12:16:32;;;;;;;375.60;359.27;;;5.80;99.90;;;;;;4375650;32;20601;-61
2021/11/26 12:18:59;;;;;;;471.37;449.47;;;5.60;99.90;;;;;;4374418;32;20156;-61
2021/11/26 12:21:29;;;;;;;378.40;362.37;;;5.60;99.90;;;;;;4374944;32;20156;-61
2021/11/26 12:24:08;;;;;;;376.30;360.23;;;5.50;99.90;;;;;;4377715;32;20211;-61
2021/11/26 12:26:43;;;;;;;370.40;354.47;;;5.60;99.90;;;;;;4377171;32;20160;-61
2021/11/26 12:29:12;;;;;;;365.50;349.43;;;5.50;99.90;;;;;;4374317;32;20651;-61
2021/11/26 12:31:47;;;;;;;384.63;368.33;;;5.50;99.90;;;;;;4375076;32;20199;-61